createdAt,value
2024-05-09T00:03:52.778Z,99166.7
2024-05-09T00:09:28.446Z,99157.3
2024-05-09T00:15:03.542Z,99150.8
2024-05-09T00:20:42.266Z,99155.5
2024-05-09T00:26:18.658Z,99159.5
2024-05-09T00:31:55.680Z,99156.3
2024-05-09T00:37:32.585Z,99148.5
2024-05-09T00:43:07.878Z,99142.8
2024-05-09T00:48:44.237Z,99140.5
2024-05-09T00:54:20.122Z,99136.4
2024-05-09T00:59:55.641Z,99133.9
2024-05-09T01:05:32.168Z,99123.3
2024-05-09T01:11:09.255Z,99114.9
2024-05-09T01:16:46.610Z,99105.6
2024-05-09T01:22:22.640Z,99104.7
2024-05-09T01:27:58.000Z,99102.4
2024-05-09T01:33:34.359Z,99094.8
2024-05-09T01:39:10.938Z,99086.2
2024-05-09T01:44:46.462Z,99076.6
2024-05-09T01:50:42.757Z,99074.6
2024-05-09T01:56:19.450Z,99070.4
2024-05-09T02:01:58.697Z,99063.3
2024-05-09T02:07:36.193Z,99057.6
2024-05-09T02:13:11.200Z,99054.5
2024-05-09T02:18:47.515Z,99052
2024-05-09T02:24:23.800Z,99055.4
2024-05-09T02:29:58.931Z,99052.5
2024-05-09T02:35:35.419Z,99050.9
2024-05-09T02:41:12.418Z,99046.7
2024-05-09T02:46:49.072Z,99034.4
2024-05-09T02:52:25.284Z,99025
2024-05-09T02:58:00.628Z,99021.9
2024-05-09T03:03:37.230Z,99015.1
2024-05-09T03:09:13.886Z,99010.8
2024-05-09T03:14:49.175Z,99001.5
2024-05-09T03:20:36.711Z,99001.7
2024-05-09T03:26:14.570Z,98999
2024-05-09T03:31:52.930Z,99006.6
2024-05-09T03:37:28.849Z,99000.8
2024-05-09T03:43:04.341Z,99001.3
2024-05-09T03:48:40.177Z,98999.6
2024-05-09T03:54:16.779Z,98997.9
2024-05-09T03:59:52.281Z,98998
2024-05-09T04:05:28.357Z,98990.2
2024-05-09T04:11:04.824Z,98994.7
2024-05-09T04:16:42.873Z,98999.2
2024-05-09T04:22:18.321Z,98990.8
2024-05-09T04:27:53.914Z,98989.5
2024-05-09T04:33:30.312Z,98983
2024-05-09T04:39:08.604Z,98983.3
2024-05-09T04:44:44.025Z,98979.3
2024-05-09T04:50:39.486Z,98979.3
2024-05-09T04:56:17.516Z,98987.9
2024-05-09T05:01:53.619Z,98990.5
2024-05-09T05:07:30.078Z,98993.5
2024-05-09T05:13:05.781Z,98996.1
2024-05-09T05:18:41.946Z,99002.9
2024-05-09T05:24:18.558Z,99003.8
2024-05-09T05:29:53.764Z,99006.8
2024-05-09T05:35:30.703Z,99009.1
2024-05-09T05:41:08.209Z,99004.2
2024-05-09T05:46:45.183Z,99004.4
2024-05-09T05:52:21.088Z,98994.6
2024-05-09T05:57:55.954Z,98994.4
2024-05-09T06:03:33.748Z,98996
2024-05-09T06:09:13.076Z,98993.1
2024-05-09T06:14:52.565Z,98991.9
2024-05-09T06:20:39.558Z,98993
2024-05-09T06:26:21.352Z,98994.6
2024-05-09T06:32:02.362Z,98994.5
2024-05-09T06:37:42.372Z,98994.4
2024-05-09T06:43:21.948Z,98999.4
2024-05-09T06:49:00.056Z,98995.8
2024-05-09T06:54:37.787Z,99006.2
2024-05-09T07:00:38.309Z,99016.1
2024-05-09T07:06:18.563Z,99016.6
2024-05-09T07:11:54.705Z,99016.1
2024-05-09T07:17:31.770Z,99015
2024-05-09T07:23:09.930Z,99016.2
2024-05-09T07:28:48.123Z,99024.2
2024-05-09T07:34:25.847Z,99021.5
2024-05-09T07:40:05.681Z,99018.2
2024-05-09T07:49:13.353Z,99021.3
2024-05-09T07:59:23.978Z,99010.7
2024-05-09T08:05:00.110Z,99014.9
2024-05-09T08:10:37.086Z,99009.1
2024-05-09T08:16:14.060Z,98996.5
2024-05-09T08:21:51.071Z,98991.1
2024-05-09T08:27:26.889Z,98993.8
2024-05-09T08:33:03.643Z,98986.5
2024-05-09T08:38:42.458Z,98987.5
2024-05-09T08:44:17.562Z,98990.7
2024-05-09T08:49:54.025Z,98984
2024-05-09T08:55:29.941Z,98975.2
2024-05-09T09:01:06.145Z,98966.3
2024-05-09T09:06:43.105Z,98976.7
2024-05-09T09:12:18.787Z,98974.1
2024-05-09T09:17:54.688Z,98980.2
2024-05-09T09:23:32.523Z,98983.9
2024-05-09T09:29:09.072Z,98983.3
2024-05-09T09:34:45.057Z,98979
2024-05-09T09:40:33.018Z,98978.7
2024-05-09T09:46:25.544Z,98985.7
2024-05-09T09:52:02.184Z,98983.2
2024-05-09T09:57:38.293Z,98974.7
2024-05-09T10:03:14.663Z,98974
2024-05-09T10:08:50.748Z,98962.9
2024-05-09T10:14:26.097Z,98966.3
2024-05-09T10:20:04.000Z,98958.8
2024-05-09T10:26:03.883Z,98960
2024-05-09T10:31:41.196Z,98943.1
2024-05-09T10:37:17.622Z,98940.5
2024-05-09T10:42:53.693Z,98932.2
2024-05-09T10:48:30.429Z,98925
2024-05-09T10:54:06.863Z,98915.3
2024-05-09T10:59:41.999Z,98911.3
2024-05-09T11:05:18.328Z,98901.5
2024-05-09T11:10:55.923Z,98895
2024-05-09T11:16:31.982Z,98881.1
2024-05-09T11:22:08.772Z,98877.3
2024-05-09T11:27:45.712Z,98867.5
2024-05-09T11:33:22.972Z,98868.3
2024-05-09T11:38:58.417Z,98860.8
2024-05-09T11:44:33.935Z,98852.7
2024-05-09T11:50:30.266Z,98850.4
2024-05-09T11:56:12.836Z,98837.7
2024-05-09T12:01:49.537Z,98835.1
2024-05-09T12:07:26.804Z,98831.6
2024-05-09T12:13:06.979Z,98825.7
2024-05-09T12:18:46.404Z,98816.3
2024-05-09T12:24:22.893Z,98816
2024-05-09T12:29:59.358Z,98806.8
2024-05-09T12:35:34.925Z,98807.1
2024-05-09T12:41:10.365Z,98800.8
2024-05-09T12:46:45.752Z,98801.5
2024-05-09T12:52:21.976Z,98793.4
2024-05-09T12:57:58.718Z,98786.5
2024-05-09T13:03:36.072Z,98779.1
2024-05-09T13:09:13.084Z,98781.4
2024-05-09T13:14:48.700Z,98768.9
2024-05-09T13:20:36.195Z,98761.5
2024-05-09T13:26:13.149Z,98748.2
2024-05-09T13:31:48.441Z,98750.1
2024-05-09T13:37:24.129Z,98740.3
2024-05-09T13:43:00.257Z,98738.4
2024-05-09T13:48:38.212Z,98732.5
2024-05-09T13:54:17.324Z,98719.4
2024-05-09T13:59:57.853Z,98714.4
2024-05-09T14:05:34.204Z,98705.3
2024-05-09T14:11:11.401Z,98691.3
2024-05-09T14:16:47.836Z,98687.9
2024-05-09T14:22:25.172Z,98679.9
2024-05-09T14:28:01.211Z,98669.5
2024-05-09T14:33:37.776Z,98663.4
2024-05-09T14:39:14.796Z,98664.2
2024-05-09T14:44:50.624Z,98660.4
2024-05-09T14:50:40.884Z,98649.8
2024-05-09T14:56:16.879Z,98634.8
2024-05-09T15:01:53.040Z,98631.2
2024-05-09T15:07:30.341Z,98620.4
2024-05-09T15:13:13.210Z,98622.5
2024-05-09T15:18:53.942Z,98612.3
2024-05-09T15:24:31.169Z,98609.4
2024-05-09T15:30:13.139Z,98605.1
2024-05-09T15:36:08.721Z,98594.9
2024-05-09T15:41:44.115Z,98598.1
2024-05-09T15:47:19.266Z,98600.3
2024-05-09T15:52:54.817Z,98604.5
2024-05-09T15:58:32.471Z,98603.8
2024-05-09T16:04:08.494Z,98591.5
2024-05-09T16:09:45.949Z,98579.9
2024-05-09T16:15:21.538Z,98576.2
2024-05-09T16:20:56.718Z,98577.2
2024-05-09T16:26:32.155Z,98572.7
2024-05-09T16:32:08.459Z,98575.5
2024-05-09T16:37:44.784Z,98571
2024-05-09T16:43:20.742Z,98571.5
2024-05-09T16:48:57.954Z,98566
2024-05-09T16:54:34.289Z,98565.9
2024-05-09T17:00:39.618Z,98552.4
2024-05-09T17:06:21.039Z,98542.1
2024-05-09T17:11:55.713Z,98535.5
2024-05-09T17:17:31.470Z,98540.5
2024-05-09T17:23:07.783Z,98545.3
2024-05-09T17:28:42.502Z,98542
2024-05-09T17:34:18.743Z,98543.1
2024-05-09T17:39:56.117Z,98543.4
2024-05-09T17:45:33.284Z,98551.5
2024-05-09T17:51:10.499Z,98558.1
2024-05-09T17:56:45.589Z,98561.4
2024-05-09T18:02:21.474Z,98571.7
2024-05-09T18:07:58.353Z,98573.2
2024-05-09T18:13:36.212Z,98573.8
2024-05-09T18:19:14.275Z,98583.4
2024-05-09T18:24:51.910Z,98590.8
2024-05-09T18:30:37.859Z,98590.5
2024-05-09T18:36:16.854Z,98593.7
2024-05-09T18:41:54.155Z,98598.5
2024-05-09T18:47:31.312Z,98607.5
2024-05-09T18:53:09.355Z,98607.4
2024-05-09T18:58:46.536Z,98610.4
2024-05-09T19:04:23.063Z,98606.4
2024-05-09T19:10:00.318Z,98610.1
2024-05-09T19:15:36.588Z,98615.1
2024-05-09T19:21:13.255Z,98622.6
2024-05-09T19:26:48.737Z,98633.7
2024-05-09T19:32:24.596Z,98643
2024-05-09T19:38:01.507Z,98642.8
2024-05-09T19:43:37.589Z,98648
2024-05-09T19:49:14.443Z,98654.5
2024-05-09T19:54:51.471Z,98661
2024-05-09T20:00:40.336Z,98668
2024-05-09T20:06:20.768Z,98676.3
2024-05-09T20:11:57.190Z,98680.3
2024-05-09T20:17:33.460Z,98689.9
2024-05-09T20:23:10.743Z,98694.6
2024-05-09T20:28:47.760Z,98691.5
2024-05-09T20:34:23.570Z,98694.7
2024-05-09T20:40:00.362Z,98701.4
2024-05-09T20:45:37.646Z,98704.4
2024-05-09T20:51:19.302Z,98716.9
2024-05-09T20:56:54.584Z,98714.1
2024-05-09T21:02:31.049Z,98717.5
2024-05-09T21:08:07.592Z,98709.6
2024-05-09T21:13:43.402Z,98707.7
2024-05-09T21:19:19.647Z,98704.7
2024-05-09T21:24:56.369Z,98704.5
2024-05-09T21:30:44.219Z,98701.4
2024-05-09T21:36:19.818Z,98692.5
2024-05-09T21:41:55.455Z,98691.3
2024-05-09T21:47:32.121Z,98685.7
2024-05-09T21:53:08.569Z,98679.8
2024-05-09T21:58:45.102Z,98677.1
2024-05-09T22:04:20.884Z,98677.2
2024-05-09T22:09:58.150Z,98674.8
2024-05-09T22:15:35.330Z,98677
2024-05-09T22:21:15.679Z,98679.1
2024-05-09T22:26:51.185Z,98678.1
2024-05-09T22:32:26.830Z,98670.5
2024-05-09T22:38:03.387Z,98673.5
2024-05-09T22:43:38.859Z,98673.1
2024-05-09T22:49:14.804Z,98670.7
2024-05-09T22:54:51.567Z,98670.3
2024-05-09T23:00:34.132Z,98669.7
2024-05-09T23:06:11.263Z,98664.3
2024-05-09T23:11:46.761Z,98656.9
2024-05-09T23:17:23.403Z,98646.5
2024-05-09T23:22:59.496Z,98641.6
2024-05-09T23:28:35.852Z,98633.3
2024-05-09T23:34:13.530Z,98628.8
2024-05-09T23:39:50.218Z,98622.6
2024-05-09T23:45:26.209Z,98619
2024-05-09T23:51:01.758Z,98614.6
2024-05-09T23:56:36.945Z,98615.7
